ZBF weather

Bathurst Airport
Bathurst, New Brunswick, Canada

Public forecast

Using degrees Celsius for public forecast. Weather courtesy of forecast.io.

Current aviation weather report (METAR) for Bathurst Airport

Retrieved 2019/11/20 02:00 UTC (54 minutes ago):

CZBF 200200Z AUTO 33003KT 290V020 1SM -SN VV012 M00/M01 A2991 RMK SLP132

Aviation forecast (TAF) for Bathurst Airport

Retrieved 2019-11-20 02:00 UTC (54 minutes ago):

TAF CZBF 200141Z 2002/2004 VRB03KT 1SM -SN OVC008 TEMPO 2002/2004 P6SM -RASN FEW008 OVC025 RMK FCST BASED ON AUTO OBS NXT FCST WILL BE ISSUED AT 200945Z